Time;durP1;ratioP1;P1;durP2;ratioP2;P2;SDS_P1;SDS_P2;PMS_P1;PMS_P2;Temp;Humidity;BMP_temperature;BMP_pressure;BME280_temperature;BME280_humidity;BME280_pressure;Samples;Min_cycle;Max_cycle;Signal;HPM_P1;HPM_P2
2021/10/02 00:34:25;;;;;;;24.47;15.75;;;;;;;7.80;77.51;100457.36;2094228;84;21587;-80
2021/10/02 00:37:33;;;;;;;24.70;16.32;;;;;;;7.76;77.61;100453.31;2094071;84;21105;-80
2021/10/02 00:47:11;;;;;;;25.85;16.27;;;;;;;7.76;78.17;100441.43;2094704;84;21070;-80
2021/10/02 00:50:12;;;;;;;25.92;16.40;;;;;;;7.69;77.84;100439.02;2092303;84;21063;-80
2021/10/02 00:53:15;;;;;;;27.50;17.07;;;;;;;7.64;77.90;100439.42;2073100;84;21598;-79
2021/10/02 00:56:16;;;;;;;26.30;17.45;;;;;;;7.63;78.04;100432.48;2093929;83;21026;-80
2021/10/02 00:59:18;;;;;;;22.62;16.90;;;;;;;7.60;78.18;100433.60;2095893;83;21028;-80
2021/10/02 01:02:44;;;;;;;22.07;15.53;;;;;;;7.60;78.18;100437.56;2090692;84;21029;-79
2021/10/02 01:06:03;;;;;;;24.87;16.62;;;;;;;7.59;78.00;100434.55;2097829;83;21027;-81
2021/10/02 01:09:13;;;;;;;25.00;15.83;;;;;;;7.57;78.24;100429.92;2108404;84;20951;-80
2021/10/02 01:12:26;;;;;;;25.82;16.00;;;;;;;7.54;78.24;100426.21;2092933;83;21029;-80
2021/10/02 01:16:01;;;;;;;24.52;17.00;;;;;;;7.54;78.16;100429.34;2085660;83;21089;-80
2021/10/02 01:19:27;;;;;;;23.65;15.43;;;;;;;7.54;78.09;100431.49;2075165;84;21516;-80
2021/10/02 01:23:14;;;;;;;24.30;16.67;;;;;;;7.51;78.00;100426.49;2090420;84;21014;-79
2021/10/02 01:26:47;;;;;;;29.23;18.07;;;;;;;7.47;78.15;100424.29;2087532;83;21667;-79
2021/10/02 01:29:51;;;;;;;24.02;14.98;;;;;;;7.42;78.25;100426.02;2069808;84;21331;-80
2021/10/02 01:33:00;;;;;;;24.82;16.37;;;;;;;7.33;77.98;100418.94;2029186;87;20970;-80
2021/10/02 01:36:16;;;;;;;23.83;16.85;;;;;;;7.25;78.19;100422.75;2059415;85;21109;-80
2021/10/02 01:49:24;;;;;;;24.40;16.45;;;;;;;7.17;78.48;100414.19;2048158;86;21097;-80
2021/10/02 01:52:39;;;;;;;24.00;16.67;;;;;;;7.10;78.26;100409.13;2049352;85;21202;-80
2021/10/02 01:55:42;;;;;;;23.55;16.10;;;;;;;7.08;78.32;100406.61;2072567;85;21035;-79
2021/10/02 01:58:45;;;;;;;24.45;16.65;;;;;;;7.10;78.46;100403.36;2077485;84;21016;-80
2021/10/02 02:01:48;;;;;;;23.15;16.45;;;;;;;7.10;78.54;100401.21;2079454;85;21507;-80
2021/10/02 02:04:52;;;;;;;23.60;17.35;;;;;;;7.05;78.72;100398.97;2078891;85;21080;-79
2021/10/02 02:08:01;;;;;;;29.02;18.27;;;;;;;7.04;78.82;100401.73;2082539;85;21009;-79
2021/10/02 02:11:05;;;;;;;26.35;15.68;;;;;;;7.04;78.99;100395.14;2072931;85;21574;-80
2021/10/02 02:14:10;;;;;;;25.10;16.52;;;;;;;6.93;78.23;100393.48;2079621;85;21009;-79
2021/10/02 02:17:16;;;;;;;24.45;15.53;;;;;;;6.87;78.97;100391.36;2076270;85;21508;-77
2021/10/02 02:20:36;;;;;;;23.95;16.07;;;;;;;6.84;78.95;100391.64;2084958;85;21053;-78
2021/10/02 02:23:41;;;;;;;26.70;18.15;;;;;;;6.77;78.92;100383.94;2079156;84;21482;-78
2021/10/02 02:26:42;;;;;;;26.07;17.30;;;;;;;6.66;78.82;100381.75;2075744;84;21084;-80
2021/10/02 02:29:44;;;;;;;28.42;18.15;;;;;;;6.60;79.00;100381.47;2076074;85;21038;-79
2021/10/02 02:32:46;;;;;;;37.90;23.07;;;;;;;6.55;79.50;100370.48;2073302;85;21026;-79
2021/10/02 02:35:49;;;;;;;40.08;22.90;;;;;;;6.56;79.81;100367.73;2053473;85;21061;-78
2021/10/02 02:38:50;;;;;;;43.70;23.57;;;;;;;6.53;79.53;100358.73;2041953;87;21008;-79
2021/10/02 02:41:53;;;;;;;31.10;18.67;;;;;;;6.50;79.50;100358.55;2106191;83;21036;-78
2021/10/02 02:44:54;;;;;;;33.85;19.17;;;;;;;6.50;79.43;100361.64;2096605;84;21015;-78
2021/10/02 02:48:04;;;;;;;34.60;20.35;;;;;;;6.51;79.39;100360.70;2092837;84;21053;-79
2021/10/02 02:51:14;;;;;;;37.78;21.15;;;;;;;6.54;79.52;100357.79;2094798;83;21002;-79
2021/10/02 02:54:47;;;;;;;32.53;19.77;;;;;;;6.50;79.65;100357.23;2098050;83;21073;-80
2021/10/02 02:57:53;;;;;;;31.82;20.05;;;;;;;6.48;79.99;100355.20;2095159;83;21120;-80
2021/10/02 03:01:00;;;;;;;29.25;19.37;;;;;;;6.43;79.86;100357.41;2096795;83;21049;-81
2021/10/02 03:03:59;;;;;;;26.80;17.62;;;;;;;6.47;80.20;100369.83;2097179;83;21017;-80
2021/10/02 03:07:04;;;;;;;35.38;22.00;;;;;;;6.48;79.91;100360.97;2095326;83;21037;-80
2021/10/02 03:10:10;;;;;;;30.32;18.87;;;;;;;6.42;79.57;100357.52;2097149;84;21113;-80
2021/10/02 03:13:14;;;;;;;30.45;19.60;;;;;;;6.42;80.42;100353.58;2093414;84;20989;-79
2021/10/02 03:16:17;;;;;;;25.77;17.32;;;;;;;6.44;80.26;100359.55;2094790;83;21009;-79
2021/10/02 03:19:21;;;;;;;25.97;17.37;;;;;;;6.45;80.24;100361.24;2090346;84;21002;-80
2021/10/02 03:22:29;;;;;;;32.03;21.42;;;;;;;6.44;80.44;100356.43;2095602;83;21595;-81
2021/10/02 03:25:32;;;;;;;35.03;23.05;;;;;;;6.48;80.63;100358.34;2095222;84;21049;-80
2021/10/02 03:28:34;;;;;;;26.82;19.12;;;;;;;6.50;80.76;100355.06;2097781;83;21040;-80
2021/10/02 03:31:37;;;;;;;25.30;17.90;;;;;;;6.52;80.79;100362.36;2093341;83;21568;-80
2021/10/02 03:34:39;;;;;;;27.17;17.87;;;;;;;6.53;80.95;100353.95;2092785;83;21053;-80
2021/10/02 03:37:41;;;;;;;26.35;17.20;;;;;;;6.52;80.80;100353.13;2093371;83;20971;-80
2021/10/02 03:40:44;;;;;;;24.20;16.85;;;;;;;6.49;80.74;100352.91;2091048;84;21037;-80
2021/10/02 03:43:46;;;;;;;27.85;17.77;;;;;;;6.47;81.00;100351.38;2092138;83;21797;-80
2021/10/02 03:46:48;;;;;;;25.85;16.45;;;;;;;6.48;81.06;100354.38;2098197;84;21042;-80
2021/10/02 03:49:51;;;;;;;23.87;16.02;;;;;;;6.49;80.87;100353.41;2096214;83;21056;-80
2021/10/02 03:52:52;;;;;;;20.97;14.23;;;;;;;6.45;80.93;100350.70;2094087;84;20970;-80
2021/10/02 03:55:56;;;;;;;22.42;17.05;;;;;;;6.45;80.93;100352.02;2098967;83;21522;-80
2021/10/02 03:59:00;;;;;;;26.05;16.90;;;;;;;6.42;80.89;100353.58;2097870;83;21025;-80
2021/10/02 04:02:01;;;;;;;27.17;18.37;;;;;;;6.39;81.02;100351.20;2098800;83;21093;-80
2021/10/02 04:05:04;;;;;;;33.48;19.32;;;;;;;6.39;81.22;100351.20;2097859;84;21049;-79
2021/10/02 04:08:06;;;;;;;27.02;17.57;;;;;;;6.41;81.56;100346.16;2099958;83;21044;-79
2021/10/02 04:11:07;;;;;;;30.60;19.15;;;;;;;6.45;81.66;100344.11;2101311;83;21027;-79
2021/10/02 04:14:09;;;;;;;27.95;17.87;;;;;;;6.46;81.73;100346.59;2093234;83;21012;-79
2021/10/02 04:17:14;;;;;;;30.02;18.65;;;;;;;6.47;81.65;100354.84;2101216;83;21111;-79
2021/10/02 04:20:15;;;;;;;25.23;17.48;;;;;;;6.48;81.65;100348.62;2100252;83;21049;-79
2021/10/02 04:23:17;;;;;;;30.12;17.95;;;;;;;6.42;81.08;100353.11;2100898;83;21496;-79
2021/10/02 04:26:22;;;;;;;26.95;17.95;;;;;;;6.43;81.33;100347.35;2100236;83;20966;-79
2021/10/02 04:29:23;;;;;;;26.55;18.02;;;;;;;6.41;81.21;100346.16;2096447;83;21025;-79
2021/10/02 04:32:25;;;;;;;31.77;16.30;;;;;;;6.36;81.36;100352.31;2098507;83;21076;-79
2021/10/02 04:35:27;;;;;;;25.43;16.40;;;;;;;6.32;80.94;100348.77;2098753;83;21499;-79
2021/10/02 04:38:28;;;;;;;26.62;18.48;;;;;;;6.31;81.18;100349.72;2097738;83;21045;-79
2021/10/02 04:41:29;;;;;;;25.50;17.92;;;;;;;6.29;81.24;100348.06;2100726;83;21046;-79
2021/10/02 04:44:32;;;;;;;31.20;20.70;;;;;;;6.28;81.26;100356.95;2084811;83;22113;-79
2021/10/02 04:47:34;;;;;;;30.57;20.05;;;;;;;6.26;81.45;100352.29;2093242;83;21003;-79
2021/10/02 04:50:35;;;;;;;33.58;19.95;;;;;;;6.22;81.32;100346.95;2098923;83;21030;-79
2021/10/02 04:53:38;;;;;;;35.28;23.07;;;;;;;6.19;81.21;100352.45;2074661;83;21086;-80
2021/10/02 04:56:39;;;;;;;33.25;21.95;;;;;;;6.16;81.40;100348.77;2095377;83;21512;-79
2021/10/02 04:59:41;;;;;;;28.20;19.90;;;;;;;6.13;81.24;100358.26;2098174;84;21033;-80
2021/10/02 05:02:42;;;;;;;29.15;17.92;;;;;;;6.09;81.18;100356.05;2100958;83;21560;-79
2021/10/02 05:05:44;;;;;;;84.90;20.08;;;;;;;6.04;81.19;100361.70;2095793;83;21013;-79
2021/10/02 05:08:48;;;;;;;53.90;17.50;;;;;;;5.98;81.04;100360.91;2097986;83;20959;-79
2021/10/02 05:11:49;;;;;;;24.50;17.95;;;;;;;5.92;81.39;100365.36;2109390;83;20998;-79
2021/10/02 05:14:50;;;;;;;50.12;17.48;;;;;;;5.92;81.69;100367.98;2105932;82;21009;-79
2021/10/02 05:17:53;;;;;;;26.87;18.15;;;;;;;6.04;82.15;100367.79;2109797;82;20981;-80
2021/10/02 05:20:55;;;;;;;31.60;19.75;;;;;;;6.23;82.38;100372.32;2111599;82;21921;-85
2021/10/02 05:23:57;;;;;;;26.55;18.17;;;;;;;6.56;82.57;100368.19;2107773;83;21028;-86
2021/10/02 05:26:58;;;;;;;21.57;15.30;;;;;;;6.92;82.58;100367.56;2110265;83;20999;-81
2021/10/02 05:30:00;;;;;;;17.55;12.70;;;;;;;7.25;81.83;100364.68;2109969;82;21065;-80
2021/10/02 05:33:06;;;;;;;18.40;12.00;;;;;;;7.53;80.97;100365.63;2110974;82;21024;-81
2021/10/02 05:36:05;;;;;;;17.90;12.70;;;;;;;7.84;80.52;100370.23;2098483;83;21062;-82
2021/10/02 05:39:07;;;;;;;18.73;13.22;;;;;;;8.20;80.22;100363.30;2100031;83;21001;-80
2021/10/02 05:42:08;;;;;;;19.50;14.53;;;;;;;8.65;80.11;100356.44;2096732;83;21035;-84
2021/10/02 05:45:10;;;;;;;19.37;12.60;;;;;;;9.14;80.04;100357.75;2095229;83;21605;-83
2021/10/02 05:48:11;;;;;;;18.17;13.65;;;;;;;9.59;79.40;100364.73;2087937;84;21507;-76
2021/10/02 05:51:13;;;;;;;20.05;13.93;;;;;;;10.02;79.10;100363.05;2098178;83;21344;-76
2021/10/02 05:54:15;;;;;;;19.25;11.73;;;;;;;10.42;78.58;100364.27;2102082;83;21022;-81
2021/10/02 05:57:17;;;;;;;19.37;13.75;;;;;;;10.87;78.22;100368.86;2102552;83;21103;-82
2021/10/02 06:00:18;;;;;;;22.77;14.20;;;;;;;11.20;77.73;100363.94;2103379;83;20989;-83
2021/10/02 06:03:20;;;;;;;23.47;15.23;;;;;;;11.51;77.31;100366.45;2101691;83;21057;-83
2021/10/02 06:06:21;;;;;;;22.25;15.43;;;;;;;11.80;77.01;100373.92;2102082;83;21011;-83
2021/10/02 06:09:23;;;;;;;20.00;14.23;;;;;;;12.09;76.30;100375.53;2089947;84;21004;-84
2021/10/02 06:12:26;;;;;;;21.85;15.48;;;;;;;12.30;75.93;100366.16;2101027;83;21054;-84
2021/10/02 06:15:28;;;;;;;23.87;15.38;;;;;;;12.54;75.78;100378.04;2102956;83;21062;-84
2021/10/02 06:18:30;;;;;;;22.98;15.38;;;;;;;12.76;74.28;100375.62;2103710;83;20993;-82
2021/10/02 06:21:32;;;;;;;24.10;15.70;;;;;;;12.74;74.61;100369.63;2087742;84;21597;-84
2021/10/02 06:24:34;;;;;;;21.82;15.45;;;;;;;12.75;73.99;100363.29;2057477;85;21077;-78
2021/10/02 06:27:38;;;;;;;21.50;15.00;;;;;;;12.72;73.58;100372.95;2090976;84;20995;-83
2021/10/02 06:30:39;;;;;;;19.62;13.60;;;;;;;12.70;73.61;100371.82;2084305;84;21007;-81
2021/10/02 06:33:41;;;;;;;15.58;13.05;;;;;;;12.74;73.25;100379.77;2074155;84;21077;-81
2021/10/02 06:36:43;;;;;;;19.77;13.53;;;;;;;12.70;73.14;100373.16;2100134;84;21024;-80
2021/10/02 06:39:45;;;;;;;17.60;12.93;;;;;;;12.78;73.15;100369.12;2095889;84;21025;-81
2021/10/02 06:42:46;;;;;;;19.40;13.80;;;;;;;12.96;73.10;100368.02;2094358;84;21112;-82
2021/10/02 06:45:48;;;;;;;19.77;13.45;;;;;;;13.04;72.81;100365.80;2106977;83;21139;-81
2021/10/02 06:48:49;;;;;;;18.62;13.32;;;;;;;13.14;72.51;100361.88;2111292;83;21112;-80
2021/10/02 06:51:51;;;;;;;18.52;14.10;;;;;;;13.13;72.17;100358.90;2058421;85;21705;-81
2021/10/02 06:54:54;;;;;;;20.40;14.93;;;;;;;13.24;72.41;100353.66;2070924;84;21029;-71
2021/10/02 06:57:55;;;;;;;19.32;14.30;;;;;;;13.28;71.83;100356.83;2078451;84;21594;-68
2021/10/02 07:00:57;;;;;;;19.40;13.38;;;;;;;13.36;71.77;100358.91;2110489;83;21080;-86
2021/10/02 07:03:59;;;;;;;16.02;12.43;;;;;;;13.62;71.36;100357.70;2107513;83;21053;-87
2021/10/02 07:07:01;;;;;;;17.82;12.60;;;;;;;13.93;71.24;100356.73;2110361;83;20951;-86
2021/10/02 07:10:04;;;;;;;19.23;13.93;;;;;;;14.21;70.97;100360.42;2113500;82;21512;-87
2021/10/02 07:13:06;;;;;;;18.25;13.90;;;;;;;14.47;70.06;100355.95;2109462;82;21554;-81
2021/10/02 07:16:08;;;;;;;20.92;13.72;;;;;;;14.77;70.66;100352.73;2115650;83;21013;-82
2021/10/02 07:19:09;;;;;;;21.80;14.30;;;;;;;15.05;69.47;100356.01;2111436;83;21091;-81
2021/10/02 07:22:11;;;;;;;17.57;13.60;;;;;;;15.27;69.42;100357.36;2108964;84;20993;-81
2021/10/02 07:25:15;;;;;;;17.57;13.30;;;;;;;15.52;68.61;100358.61;2070943;84;21347;-81
2021/10/02 07:28:17;;;;;;;18.98;12.47;;;;;;;15.65;68.81;100358.73;2114183;83;21041;-81
2021/10/02 07:31:19;;;;;;;15.35;12.82;;;;;;;16.04;68.85;100363.22;2111792;82;20990;-81
2021/10/02 07:34:21;;;;;;;17.12;12.90;;;;;;;16.43;68.43;100365.81;2099010;83;21009;-82
2021/10/02 07:37:23;;;;;;;13.58;11.55;;;;;;;16.73;67.83;100353.78;2073186;84;21506;-81
2021/10/02 07:40:24;;;;;;;17.90;12.82;;;;;;;16.95;67.21;100353.16;2096270;83;21124;-82
2021/10/02 07:43:27;;;;;;;17.52;13.40;;;;;;;17.21;67.24;100352.89;2096908;83;21035;-81
2021/10/02 07:46:31;;;;;;;18.32;13.18;;;;;;;17.38;65.02;100355.48;2079754;83;21084;-81
2021/10/02 07:49:38;;;;;;;14.95;12.63;;;;;;;17.46;65.15;100361.16;2084661;84;20997;-81
2021/10/02 07:52:41;;;;;;;14.50;12.88;;;;;;;17.73;64.91;100351.23;2100358;84;21006;-81
2021/10/02 07:55:45;;;;;;;21.45;12.58;;;;;;;18.01;64.91;100351.02;2104516;83;21086;-81
2021/10/02 07:58:48;;;;;;;16.85;12.25;;;;;;;18.19;63.27;100356.23;2104283;83;21084;-81
2021/10/02 08:01:50;;;;;;;16.05;12.07;;;;;;;18.32;63.46;100348.96;2107539;83;21539;-81
2021/10/02 08:04:52;;;;;;;17.15;11.80;;;;;;;18.48;63.05;100343.64;2080429;84;21044;-81
2021/10/02 08:07:53;;;;;;;14.87;12.70;;;;;;;18.59;62.36;100347.53;2080043;84;21012;-81
2021/10/02 08:10:55;;;;;;;14.80;12.73;;;;;;;18.61;62.08;100342.75;2120976;82;21058;-81
2021/10/02 08:13:57;;;;;;;14.43;12.68;;;;;;;18.69;61.45;100334.44;2122476;82;20970;-81
2021/10/02 08:17:00;;;;;;;14.58;13.08;;;;;;;18.88;61.76;100330.56;2119934;83;21000;-81
2021/10/02 08:20:08;;;;;;;13.72;11.80;;;;;;;19.06;59.40;100332.50;2118534;82;21014;-81
2021/10/02 08:23:16;;;;;;;14.78;11.88;;;;;;;19.22;60.78;100334.14;2119627;82;21058;-81
2021/10/02 08:26:19;;;;;;;14.23;12.73;;;;;;;19.44;61.02;100328.40;2088336;84;20982;-81
2021/10/02 08:29:22;;;;;;;14.93;11.95;;;;;;;19.78;60.52;100329.77;2078566;84;21651;-81
2021/10/02 08:32:25;;;;;;;13.30;11.88;;;;;;;19.91;59.47;100339.08;2105678;83;21001;-81
2021/10/02 08:35:26;;;;;;;13.30;11.88;;;;;;;19.93;59.03;100328.91;2108738;83;21097;-81
2021/10/02 08:38:28;;;;;;;12.60;11.30;;;;;;;19.92;58.09;100330.47;2081555;83;21072;-81
2021/10/02 08:41:30;;;;;;;16.60;12.03;;;;;;;19.94;58.18;100328.38;2108386;83;21449;-80
2021/10/02 08:44:33;;;;;;;20.45;12.13;;;;;;;20.02;57.61;100330.78;2101123;83;21793;-81
2021/10/02 08:47:43;;;;;;;14.35;12.30;;;;;;;20.11;56.87;100325.39;2060022;85;21078;-82
2021/10/02 08:50:48;;;;;;;12.68;10.85;;;;;;;20.13;56.66;100317.07;2092342;84;21057;-81
2021/10/02 08:53:53;;;;;;;13.30;11.70;;;;;;;20.27;56.04;100317.25;2091384;83;20982;-82
2021/10/02 08:56:57;;;;;;;14.90;11.12;;;;;;;20.20;56.30;100315.67;2070428;84;21661;-81
2021/10/02 08:59:58;;;;;;;13.65;12.18;;;;;;;20.31;56.35;100318.42;2091969;84;21178;-82
2021/10/02 09:03:01;;;;;;;17.85;10.18;;;;;;;20.48;56.56;100311.89;2093362;84;21591;-81
2021/10/02 09:06:02;;;;;;;11.28;10.00;;;;;;;20.68;55.48;100308.95;2088710;84;20997;-82
2021/10/02 09:09:06;;;;;;;13.75;10.95;;;;;;;20.62;54.61;100299.62;2089732;83;20970;-82
2021/10/02 09:12:08;;;;;;;14.18;10.48;;;;;;;20.78;54.35;100306.55;2060033;84;21064;-81
2021/10/02 09:15:11;;;;;;;13.48;10.93;;;;;;;20.94;54.69;100309.62;2089353;84;21062;-82
2021/10/02 09:18:13;;;;;;;17.40;10.48;;;;;;;21.12;55.24;100316.81;2058323;85;21098;-82
2021/10/02 09:21:15;;;;;;;11.40;9.85;;;;;;;21.34;52.29;100305.77;2058119;85;22767;-82
2021/10/02 09:24:22;;;;;;;14.20;10.53;;;;;;;21.21;53.44;100313.57;2090509;84;21009;-82
2021/10/02 09:27:27;;;;;;;11.48;10.28;;;;;;;21.16;52.90;100308.58;2090647;83;21600;-82
2021/10/02 09:30:29;;;;;;;13.70;10.23;;;;;;;21.08;51.75;100310.25;2086751;84;21054;-82
2021/10/02 09:33:32;;;;;;;11.33;9.03;;;;;;;21.07;52.30;100309.97;2096930;84;21615;-82
2021/10/02 09:36:38;;;;;;;10.40;9.33;;;;;;;21.16;52.04;100305.34;2069772;84;21044;-82
2021/10/02 09:39:42;;;;;;;10.93;9.73;;;;;;;21.12;51.61;100304.17;2087570;83;21096;-83
2021/10/02 09:42:52;;;;;;;14.45;10.20;;;;;;;21.11;51.97;100310.61;2091525;84;22351;-82
2021/10/02 09:45:54;;;;;;;14.83;10.27;;;;;;;21.22;51.22;100309.80;2099223;83;21075;-82
2021/10/02 09:48:56;;;;;;;12.73;9.83;;;;;;;21.18;50.77;100305.13;2104937;83;21579;-82
2021/10/02 09:51:57;;;;;;;9.28;8.05;;;;;;;21.15;49.98;100309.11;2103493;83;21065;-82
2021/10/02 09:55:02;;;;;;;13.45;9.20;;;;;;;21.12;51.34;100308.72;2108170;83;21564;-82
2021/10/02 09:58:33;;;;;;;10.08;9.10;;;;;;;21.20;51.61;100307.05;2083281;84;21026;-82
2021/10/02 10:01:35;;;;;;;10.50;8.88;;;;;;;21.36;51.11;100312.30;2107243;83;21009;-81
2021/10/02 10:04:36;;;;;;;9.95;8.93;;;;;;;21.55;50.76;100307.12;2104244;83;21029;-81
2021/10/02 10:07:38;;;;;;;15.25;8.63;;;;;;;21.74;50.17;100298.38;2106576;83;21539;-81
2021/10/02 10:10:42;;;;;;;9.73;8.65;;;;;;;21.98;49.97;100305.09;2108637;83;21546;-81
2021/10/02 10:13:49;;;;;;;10.15;9.03;;;;;;;22.14;50.28;100297.61;2105096;84;21540;-80
2021/10/02 10:16:53;;;;;;;10.43;9.18;;;;;;;22.23;49.65;100298.91;2101585;83;21615;-81
2021/10/02 10:20:08;;;;;;;13.48;9.25;;;;;;;22.26;49.19;100303.02;2106346;83;21048;-81
2021/10/02 10:23:11;;;;;;;15.53;8.55;;;;;;;21.94;48.18;100296.66;2107401;83;21080;-78
2021/10/02 10:26:16;;;;;;;9.85;8.78;;;;;;;21.52;48.32;100291.93;2110148;83;21081;-81
2021/10/02 10:29:18;;;;;;;12.28;8.50;;;;;;;21.20;48.87;100293.55;2103367;83;21657;-81
2021/10/02 10:32:19;;;;;;;9.30;8.40;;;;;;;20.81;48.90;100280.47;2105801;83;21065;-81
2021/10/02 10:35:23;;;;;;;11.05;8.73;;;;;;;20.56;49.24;100283.84;2106440;83;21638;-81
2021/10/02 10:38:25;;;;;;;11.63;8.30;;;;;;;20.39;50.12;100297.09;2106597;83;21016;-81
2021/10/02 10:41:28;;;;;;;10.45;8.78;;;;;;;20.27;50.25;100288.11;2104991;83;21579;-81
2021/10/02 10:44:31;;;;;;;10.53;9.35;;;;;;;20.45;50.34;100287.27;2107128;83;20985;-80
2021/10/02 10:47:35;;;;;;;11.40;9.58;;;;;;;20.68;50.20;100279.30;2097931;84;21068;-80
2021/10/02 10:50:45;;;;;;;11.88;8.83;;;;;;;20.73;50.38;100279.97;2096771;83;21065;-81
2021/10/02 10:53:50;;;;;;;11.50;8.83;;;;;;;20.78;49.94;100273.38;2101743;83;21082;-81
2021/10/02 10:56:54;;;;;;;18.85;9.98;;;;;;;20.59;49.54;100276.11;2100869;83;20989;-81
2021/10/02 10:59:55;;;;;;;14.95;9.60;;;;;;;20.50;49.88;100261.28;2097623;83;22312;-81
2021/10/02 11:03:03;;;;;;;12.68;9.55;;;;;;;20.34;49.01;100258.69;2098810;83;21009;-81
2021/10/02 11:06:08;;;;;;;10.45;8.80;;;;;;;20.12;49.90;100260.22;2101269;83;21006;-81
2021/10/02 11:09:10;;;;;;;12.43;9.23;;;;;;;19.89;50.62;100262.25;2095829;83;21003;-81
2021/10/02 11:12:14;;;;;;;11.12;8.20;;;;;;;19.94;51.14;100259.72;2097134;83;21056;-80
2021/10/02 11:15:23;;;;;;;11.85;8.38;;;;;;;20.18;50.77;100249.06;2098633;83;21065;-80
2021/10/02 11:18:46;;;;;;;13.48;8.43;;;;;;;20.23;49.76;100246.52;2099176;83;21033;-81
2021/10/02 11:23:13;;;;;;;9.83;8.63;;;;;;;20.34;50.22;100250.61;2099380;83;21853;-81
2021/10/02 11:26:21;;;;;;;13.10;8.98;;;;;;;20.46;49.83;100241.75;2090381;83;21096;-82
2021/10/02 11:29:34;;;;;;;13.50;8.38;;;;;;;20.62;50.00;100241.67;2065107;83;21000;-83
2021/10/02 11:32:36;;;;;;;9.03;8.10;;;;;;;20.62;49.16;100241.67;2100040;83;20993;-83
2021/10/02 11:35:38;;;;;;;8.70;7.72;;;;;;;20.59;49.55;100234.86;2097279;83;21053;-82
2021/10/02 11:38:39;;;;;;;9.93;7.92;;;;;;;20.59;49.36;100238.38;2098650;83;21040;-82
2021/10/02 11:41:52;;;;;;;10.75;8.45;;;;;;;20.62;49.67;100241.67;2071222;83;20969;-82
2021/10/02 11:44:54;;;;;;;10.90;8.55;;;;;;;20.68;49.17;100243.44;2097317;83;21062;-82
2021/10/02 11:48:01;;;;;;;10.13;8.90;;;;;;;20.77;49.27;100239.35;2089356;84;21065;-82
2021/10/02 11:51:20;;;;;;;9.78;7.75;;;;;;;20.91;49.90;100239.44;2086243;84;21504;-82
2021/10/02 11:54:22;;;;;;;8.75;7.70;;;;;;;21.04;49.39;100235.72;2090378;84;21013;-82
2021/10/02 11:57:23;;;;;;;10.28;6.97;;;;;;;21.23;49.16;100227.82;2090857;83;21049;-82
2021/10/02 12:00:25;;;;;;;10.60;7.20;;;;;;;21.42;48.83;100228.53;2087983;84;20983;-82
2021/10/02 12:03:32;;;;;;;8.68;6.95;;;;;;;21.54;48.61;100237.16;2092757;84;21096;-82
2021/10/02 12:06:38;;;;;;;8.85;7.17;;;;;;;21.58;48.50;100245.91;2092113;84;21096;-82
2021/10/02 12:09:39;;;;;;;7.42;6.72;;;;;;;21.55;48.17;100245.03;2093684;84;21052;-82
2021/10/02 12:12:41;;;;;;;9.70;8.20;;;;;;;21.48;48.06;100241.62;2092362;83;21039;-82
2021/10/02 12:15:43;;;;;;;9.13;8.23;;;;;;;21.54;47.74;100245.25;2094657;83;21552;-82
2021/10/02 12:19:11;;;;;;;10.78;7.33;;;;;;;21.48;47.81;100245.16;2040062;86;21048;-82
2021/10/02 12:22:13;;;;;;;8.53;7.60;;;;;;;21.35;48.46;100237.80;2088403;84;21076;-82
2021/10/02 12:25:20;;;;;;;9.85;7.92;;;;;;;21.29;48.11;100239.55;2091751;84;20998;-82
2021/10/02 12:28:23;;;;;;;10.10;8.75;;;;;;;21.20;48.08;100243.63;2087321;83;21064;-83
2021/10/02 12:31:51;;;;;;;13.13;8.30;;;;;;;21.14;48.42;100235.95;2093415;83;21069;-82
2021/10/02 12:34:56;;;;;;;8.75;7.15;;;;;;;21.21;48.43;100233.16;2092537;83;21563;-83
2021/10/02 12:37:58;;;;;;;13.75;7.92;;;;;;;21.23;48.17;100241.81;2089992;83;21474;-83
2021/10/02 12:41:00;;;;;;;10.35;8.03;;;;;;;21.22;48.81;100244.23;2089288;83;21373;-83
2021/10/02 12:44:02;;;;;;;9.78;7.58;;;;;;;21.27;48.28;100245.70;2092425;83;21047;-82
2021/10/02 12:47:08;;;;;;;9.85;8.10;;;;;;;21.26;48.62;100246.77;2091271;83;21134;-83
2021/10/02 12:50:13;;;;;;;9.38;7.15;;;;;;;21.24;48.99;100242.95;2091985;84;22204;-83
2021/10/02 12:53:15;;;;;;;11.10;7.97;;;;;;;21.29;48.59;100246.30;2090198;84;20990;-83
2021/10/02 12:56:18;;;;;;;8.38;7.30;;;;;;;21.21;48.41;100242.06;2070476;84;21043;-83
2021/10/02 12:59:20;;;;;;;12.85;8.53;;;;;;;21.19;48.62;100244.16;2085686;84;21145;-82
2021/10/02 13:02:21;;;;;;;11.97;7.72;;;;;;;21.14;48.40;100240.52;2093145;84;21564;-83
2021/10/02 13:05:27;;;;;;;20.12;8.23;;;;;;;21.02;48.20;100244.03;2087360;84;21013;-82
2021/10/02 13:08:29;;;;;;;11.65;8.28;;;;;;;20.97;49.03;100244.44;2090906;85;21042;-83
2021/10/02 13:11:34;;;;;;;13.98;8.13;;;;;;;20.95;49.10;100243.33;2090918;84;20986;-83
2021/10/02 13:14:37;;;;;;;11.08;8.38;;;;;;;20.88;49.42;100239.91;2092964;84;21636;-81
2021/10/02 13:17:39;;;;;;;13.25;8.70;;;;;;;20.79;49.17;100230.52;2091554;84;21493;-81
2021/10/02 13:20:48;;;;;;;10.23;8.23;;;;;;;20.72;49.80;100221.69;2089742;84;21557;-81
2021/10/02 13:23:50;;;;;;;12.90;8.23;;;;;;;20.74;49.46;100224.45;2084894;85;21023;-81
2021/10/02 13:26:51;;;;;;;9.40;8.35;;;;;;;20.63;49.74;100227.13;2084331;85;21004;-81
2021/10/02 13:30:07;;;;;;;10.98;8.48;;;;;;;20.47;49.94;100221.82;2089218;83;21086;-81
2021/10/02 13:33:17;;;;;;;12.60;8.58;;;;;;;20.35;50.27;100221.25;2093259;84;21063;-81
2021/10/02 13:36:29;;;;;;;9.88;8.53;;;;;;;20.22;50.12;100227.37;2085848;84;21937;-81
2021/10/02 13:39:31;;;;;;;13.38;8.58;;;;;;;20.11;50.06;100224.38;2029599;86;21037;-81
2021/10/02 13:42:33;;;;;;;13.15;9.15;;;;;;;20.14;50.38;100218.55;2088864;84;20989;-81
2021/10/02 13:45:39;;;;;;;11.20;9.65;;;;;;;20.12;49.79;100230.06;2025177;86;21062;-81
2021/10/02 13:48:40;;;;;;;10.50;8.98;;;;;;;20.03;50.28;100227.91;2071319;84;21098;-81
2021/10/02 13:51:43;;;;;;;11.97;9.13;;;;;;;19.96;50.46;100227.98;2093006;83;21009;-81
2021/10/02 13:54:45;;;;;;;10.80;8.90;;;;;;;19.95;50.72;100221.48;2092625;84;21035;-81
2021/10/02 13:57:47;;;;;;;10.45;9.20;;;;;;;20.02;50.86;100217.67;2029380;85;21023;-81
2021/10/02 14:00:49;;;;;;;9.90;8.83;;;;;;;20.11;50.89;100220.34;2088359;84;21571;-81
2021/10/02 14:03:50;;;;;;;15.18;8.78;;;;;;;20.17;50.24;100213.23;2091797;84;21073;-81
2021/10/02 14:06:52;;;;;;;10.85;9.00;;;;;;;20.17;50.25;100217.80;2071448;84;21090;-81
2021/10/02 14:09:53;;;;;;;11.63;9.50;;;;;;;20.14;50.33;100202.38;2083808;84;21017;-81
2021/10/02 14:12:56;;;;;;;13.93;9.63;;;;;;;20.11;50.29;100210.09;2035210;85;21048;-81
2021/10/02 14:15:58;;;;;;;9.48;8.48;;;;;;;20.04;50.17;100204.78;2030025;85;20982;-81
2021/10/02 14:19:00;;;;;;;22.48;10.20;;;;;;;19.99;50.08;100205.16;2033924;86;21078;-81
2021/10/02 14:22:03;;;;;;;11.83;10.50;;;;;;;19.89;50.77;100213.26;2030682;86;22291;-81
2021/10/02 14:25:08;;;;;;;15.25;9.50;;;;;;;19.81;50.71;100219.47;2106252;83;21016;-81
2021/10/02 14:28:10;;;;;;;12.18;10.40;;;;;;;19.77;50.60;100211.56;2100656;83;21026;-82
2021/10/02 14:31:12;;;;;;;12.15;10.08;;;;;;;19.72;50.82;100211.41;2103834;83;21017;-81
2021/10/02 14:34:15;;;;;;;11.35;10.15;;;;;;;19.64;50.90;100226.77;2103046;83;21451;-81
2021/10/02 14:37:17;;;;;;;13.80;10.90;;;;;;;19.59;50.95;100229.30;2103109;83;21037;-81
2021/10/02 14:40:19;;;;;;;14.90;10.63;;;;;;;19.56;51.35;100224.36;2102737;83;21057;-81
2021/10/02 14:43:21;;;;;;;15.68;12.98;;;;;;;19.50;51.47;100225.26;2103146;83;21104;-81
2021/10/02 14:46:23;;;;;;;14.07;12.68;;;;;;;19.48;51.92;100225.50;2100159;83;21019;-81
2021/10/02 14:49:25;;;;;;;14.53;11.63;;;;;;;19.46;51.98;100222.73;2090861;83;21073;-81
2021/10/02 14:52:27;;;;;;;13.83;10.63;;;;;;;19.42;52.11;100214.78;2095448;83;21393;-81
2021/10/02 14:55:30;;;;;;;14.00;11.20;;;;;;;19.44;52.46;100207.31;2090551;83;21099;-82